Time;durP1;ratioP1;P1;durP2;ratioP2;P2;SDS_P1;SDS_P2;PMS_P1;PMS_P2;Temp;Humidity;BMP_temperature;BMP_pressure;BME280_temperature;BME280_humidity;BME280_pressure;Samples;Min_cycle;Max_cycle;Signal;HPM_P1;HPM_P2
2022/11/04 00:00:23;;;;;;;;;2.00;2.00;;;;;11.62;74.19;99751.13;5055911;28;45288;-55
2022/11/04 00:02:48;;;;;;;;;1.67;1.00;;;;;11.65;74.23;99744.72;5044869;28;45336;-56
2022/11/04 00:05:14;;;;;;;;;3.00;1.00;;;;;11.61;73.91;99738.78;5076721;28;45240;-58
2022/11/04 00:12:23;;;;;;;;;1.00;1.00;;;;;11.63;74.16;99734.19;5074764;27;45327;-57
2022/11/04 00:13:08;;;;;;;;;1.00;1.00;;;;;11.64;74.07;99727.03;5077179;27;45430;-57
2022/11/04 00:18:20;;;;;;;;;2.67;1.00;;;;;11.63;74.80;99728.00;5060786;28;45495;-58
2022/11/04 00:28:57;;;;;;;;;2.33;0.00;;;;;11.57;75.47;99715.97;5055202;28;45785;-57
2022/11/04 00:34:07;;;;;;;;;4.67;1.33;;;;;11.54;75.26;99708.22;5059727;28;45307;-58
2022/11/04 00:36:33;;;;;;;;;0.67;0.67;;;;;11.55;74.79;99717.06;5076275;28;45807;-57
2022/11/04 00:38:58;;;;;;;;;1.00;1.00;;;;;11.52;75.13;99711.00;5076209;27;45357;-57
2022/11/04 00:41:27;;;;;;;;;1.33;1.33;;;;;11.52;75.69;99707.47;5076096;28;45280;-57
2022/11/04 00:43:55;;;;;;;;;2.00;1.00;;;;;11.56;75.25;99714.28;5076482;28;45306;-57
2022/11/04 00:46:21;;;;;;;;;2.00;0.67;;;;;11.52;74.94;99711.00;5076370;27;45300;-57
2022/11/04 00:48:47;;;;;;;;;1.33;1.33;;;;;11.49;75.43;99697.06;5060048;27;46071;-56
2022/11/04 00:51:13;;;;;;;;;1.00;1.00;;;;;11.50;75.42;99698.75;5055646;28;45379;-57
2022/11/04 00:53:38;;;;;;;;;1.00;1.00;;;;;11.56;75.08;99708.94;5070326;27;45316;-56
2022/11/04 00:56:04;;;;;;;;;0.00;0.00;;;;;11.52;75.44;99691.50;5039486;28;45354;-58
2022/11/04 00:58:29;;;;;;;;;1.00;1.00;;;;;11.49;75.62;99695.25;5058725;28;45393;-58
2022/11/04 01:00:54;;;;;;;;;1.00;1.00;;;;;11.51;75.34;99690.66;5073382;27;45279;-59
2022/11/04 01:03:20;;;;;;;;;2.00;2.00;;;;;11.53;75.51;99690.53;5077673;28;45408;-58
2022/11/04 01:05:45;;;;;;;;;2.00;0.67;;;;;11.53;74.99;99677.22;5079295;28;45417;-57
2022/11/04 01:08:10;;;;;;;;;2.00;1.00;;;;;11.55;75.06;99682.44;5077397;28;50637;-58
2022/11/04 01:10:43;;;;;;;;;0.33;0.33;;;;;11.59;75.13;99681.22;5060569;28;45456;-58
2022/11/04 01:13:11;;;;;;;;;2.33;0.67;;;;;11.54;74.67;99673.59;5078784;28;45300;-56
2022/11/04 01:15:38;;;;;;;;;0.00;0.00;;;;;11.60;75.46;99673.16;5076993;27;46076;-62
2022/11/04 01:18:04;;;;;;;;;4.00;1.00;;;;;11.64;75.31;99673.78;5078213;28;45517;-59
2022/11/04 01:20:31;;;;;;;;;0.00;0.00;;;;;11.58;75.54;99669.72;5076993;27;45552;-57
2022/11/04 01:22:56;;;;;;;;;1.00;1.00;;;;;11.48;76.12;99658.09;5078738;28;45371;-58
2022/11/04 01:25:22;;;;;;;;;1.67;0.00;;;;;11.57;76.42;99673.38;5079138;28;45513;-57
2022/11/04 01:27:47;;;;;;;;;2.67;1.00;;;;;11.51;76.89;99673.84;5059737;28;46733;-58
2022/11/04 01:30:13;;;;;;;;;1.00;0.33;;;;;11.43;76.73;99655.75;5079140;27;45220;-57
2022/11/04 01:32:38;;;;;;;;;2.33;0.00;;;;;11.56;76.75;99676.16;5078619;28;45285;-57
2022/11/04 01:35:04;;;;;;;;;2.00;1.00;;;;;11.45;76.26;99663.63;5078109;27;45696;-58
2022/11/04 01:37:29;;;;;;;;;1.00;1.00;;;;;11.47;76.37;99667.06;5076304;28;46391;-57
2022/11/04 01:39:55;;;;;;;;;0.00;0.00;;;;;11.45;76.60;99652.97;5077071;28;45648;-57
2022/11/04 01:42:21;;;;;;;;;3.33;1.33;;;;;11.45;76.50;99658.31;5076880;27;45440;-57
2022/11/04 01:44:50;;;;;;;;;1.00;1.00;;;;;11.43;76.72;99649.59;5078609;27;45388;-58
2022/11/04 01:47:17;;;;;;;;;1.00;0.33;;;;;11.42;77.04;99655.88;5077858;27;45502;-57
2022/11/04 01:49:46;;;;;;;;;0.00;0.00;;;;;11.40;76.76;99645.34;5078316;27;45228;-57
2022/11/04 01:52:18;;;;;;;;;1.33;1.00;;;;;11.39;76.46;99645.47;5059693;28;45440;-59
2022/11/04 01:54:46;;;;;;;;;0.00;0.00;;;;;11.37;76.93;99644.72;5076642;28;45321;-57
2022/11/04 01:57:23;;;;;;;;;3.33;1.33;;;;;11.33;76.51;99632.59;5072781;27;46350;-56
2022/11/04 01:59:49;;;;;;;;;0.00;0.00;;;;;11.34;76.67;99644.97;5059082;27;45476;-57
2022/11/04 02:02:15;;;;;;;;;3.00;0.00;;;;;11.35;76.46;99633.34;5077748;28;45317;-56
2022/11/04 02:04:42;;;;;;;;;0.67;0.00;;;;;11.32;76.08;99630.91;5078066;28;45587;-58
2022/11/04 02:07:09;;;;;;;;;0.00;0.00;;;;;11.32;76.16;99629.06;5077841;28;45276;-57
2022/11/04 02:09:38;;;;;;;;;0.67;0.67;;;;;11.31;75.75;99630.03;5076820;27;45425;-56
2022/11/04 02:14:49;;;;;;;;;0.67;0.67;;;;;11.30;76.02;99639.00;5062778;28;45448;-56
2022/11/04 02:17:18;;;;;;;;;1.67;1.00;;;;;11.33;76.22;99638.78;5077995;28;45296;-58
2022/11/04 02:19:58;;;;;;;;;2.67;1.00;;;;;11.32;76.24;99634.41;5077940;28;45212;-58
2022/11/04 02:22:38;;;;;;;;;0.00;0.00;;;;;11.33;76.01;99619.28;5077935;28;45472;-57
2022/11/04 02:25:34;;;;;;;;;1.00;1.00;;;;;11.33;75.91;99620.16;5075766;27;45343;-57
2022/11/04 02:28:50;;;;;;;;;0.00;0.00;;;;;11.30;76.05;99628.34;5055894;28;46483;-57
2022/11/04 02:31:35;;;;;;;;;1.00;1.00;;;;;11.28;75.91;99629.44;5057310;28;45276;-58
2022/11/04 02:34:16;;;;;;;;;0.67;0.00;;;;;11.29;75.97;99625.81;5076929;27;45405;-59
2022/11/04 02:36:47;;;;;;;;;4.00;1.00;;;;;11.32;76.24;99633.56;5059211;28;45637;-58
2022/11/04 02:39:46;;;;;;;;;0.33;0.33;;;;;11.33;76.22;99637.91;5059573;28;48181;-57
2022/11/04 02:42:25;;;;;;;;;1.00;1.00;;;;;11.27;76.14;99628.59;5076322;28;45492;-57
2022/11/04 02:45:16;;;;;;;;;4.00;1.00;;;;;11.29;76.28;99628.47;5056873;28;45414;-56
2022/11/04 02:47:50;;;;;;;;;2.33;0.00;;;;;11.31;76.41;99629.19;5067770;27;45782;-58
2022/11/04 02:50:24;;;;;;;;;0.67;0.00;;;;;11.34;76.46;99623.66;5076960;28;46263;-58
2022/11/04 02:52:58;;;;;;;;;0.00;0.00;;;;;11.32;76.07;99615.78;5077056;27;45249;-57
2022/11/04 02:55:33;;;;;;;;;1.67;1.00;;;;;11.33;76.16;99609.50;5077125;28;45315;-57
2022/11/04 02:58:03;;;;;;;;;0.00;0.00;;;;;11.34;76.22;99607.69;5076634;28;45496;-57
2022/11/04 03:00:30;;;;;;;;;2.67;0.00;;;;;11.36;76.10;99616.41;5076908;27;45416;-56
2022/11/04 03:03:03;;;;;;;;;1.33;0.33;;;;;11.37;76.16;99607.47;5077453;28;45316;-57
2022/11/04 03:05:36;;;;;;;;;0.67;0.67;;;;;11.36;76.25;99605.75;5076743;27;45197;-57
2022/11/04 03:08:07;;;;;;;;;1.00;1.00;;;;;11.43;76.24;99609.66;5075189;28;45228;-57
2022/11/04 03:10:42;;;;;;;;;0.00;0.00;;;;;11.46;76.02;99612.09;5076913;28;46197;-58
2022/11/04 03:13:13;;;;;;;;;1.00;0.67;;;;;11.46;76.07;99606.78;5077376;28;45481;-57
2022/11/04 03:15:46;;;;;;;;;1.00;1.00;;;;;11.44;75.94;99590.03;5074382;27;45703;-58
2022/11/04 03:18:44;;;;;;;;;0.33;0.33;;;;;11.52;75.52;99600.97;5082441;27;46339;-57
2022/11/04 03:21:13;;;;;;;;;0.00;0.00;;;;;11.51;75.95;99599.28;5097319;27;46022;-57
2022/11/04 03:23:39;;;;;;;;;0.00;0.00;;;;;11.46;75.84;99590.81;5056320;28;45414;-57
2022/11/04 03:26:27;;;;;;;;;0.00;0.00;;;;;11.52;75.75;99595.66;5056499;28;45355;-58
2022/11/04 03:29:17;;;;;;;;;0.00;0.00;;;;;11.50;75.52;99592.25;5056516;28;45635;-58
2022/11/04 03:32:17;;;;;;;;;0.33;0.00;;;;;11.54;75.51;99593.72;5091987;27;45633;-56
2022/11/04 03:34:43;;;;;;;;;0.00;0.00;;;;;11.54;75.65;99593.72;5043824;28;45542;-56
2022/11/04 03:37:10;;;;;;;;;0.00;0.00;;;;;11.45;75.01;99573.09;5077558;27;45399;-56
2022/11/04 03:39:35;;;;;;;;;0.00;0.00;;;;;11.56;75.21;99591.78;5076454;28;45517;-56
2022/11/04 03:42:18;;;;;;;;;0.67;0.00;;;;;11.61;75.27;99588.78;5082341;27;45581;-57
2022/11/04 03:44:50;;;;;;;;;0.00;0.00;;;;;11.62;74.81;99578.00;5076951;27;46333;-56
2022/11/04 03:47:17;;;;;;;;;0.67;0.00;;;;;11.59;74.66;99575.59;5076534;28;45223;-59
2022/11/04 03:49:44;;;;;;;;;6.33;1.00;;;;;11.62;74.84;99577.16;5074840;28;45289;-57
2022/11/04 03:52:10;;;;;;;;;0.67;0.00;;;;;11.67;74.80;99575.84;5074955;27;45612;-58
2022/11/04 03:54:36;;;;;;;;;2.67;0.00;;;;;11.64;74.60;99573.41;5076353;28;45383;-58
2022/11/04 03:57:01;;;;;;;;;1.00;0.00;;;;;11.65;74.33;99572.44;5076793;28;45346;-56
2022/11/04 03:59:56;;;;;;;;;0.00;0.00;;;;;11.62;74.32;99575.34;5092234;27;45598;-58
2022/11/04 04:02:34;;;;;;;;;0.67;0.00;;;;;11.57;74.23;99566.84;5057736;28;46205;-57
2022/11/04 04:05:05;;;;;;;;;0.00;0.00;;;;;11.60;74.49;99576.44;5075620;27;45582;-56
2022/11/04 04:07:39;;;;;;;;;0.00;0.00;;;;;11.56;74.56;99586.47;5075080;28;45553;-57
2022/11/04 04:10:51;;;;;;;;;0.00;0.00;;;;;11.53;74.45;99592.03;5076271;27;45325;-55
2022/11/04 04:13:16;;;;;;;;;2.33;0.00;;;;;11.54;74.40;99593.72;5055092;27;46504;-57
2022/11/04 04:16:06;;;;;;;;;5.00;0.00;;;;;11.57;74.51;99593.47;5075852;28;45315;-57
2022/11/04 04:18:41;;;;;;;;;0.00;0.00;;;;;11.55;74.28;99590.09;5076295;27;45386;-57
2022/11/04 04:21:11;;;;;;;;;0.33;0.33;;;;;11.58;74.47;99597.84;5076248;27;45443;-55
2022/11/04 04:29:10;;;;;;;;;2.00;0.00;;;;;11.58;74.38;99600.50;5065091;28;45466;-57
2022/11/04 04:31:51;;;;;;;;;0.00;0.00;;;;;11.57;74.24;99608.59;5062439;28;45644;-57
2022/11/04 04:34:20;;;;;;;;;1.00;1.00;;;;;11.49;74.49;99596.75;5079228;28;46130;-58
2022/11/04 04:37:20;;;;;;;;;1.00;0.00;;;;;11.53;74.30;99608.00;5078929;27;45453;-57
2022/11/04 04:45:32;;;;;;;;;0.00;0.00;;;;;11.55;74.38;99607.88;5079075;28;45403;-56
2022/11/04 04:47:58;;;;;;;;;0.00;0.00;;;;;11.52;74.29;99600.97;5060719;28;45545;-57
2022/11/04 04:50:34;;;;;;;;;1.33;1.00;;;;;11.47;74.69;99597.81;5078840;28;45397;-58
2022/11/04 04:53:02;;;;;;;;;0.00;0.00;;;;;11.47;74.35;99603.16;5079692;28;45350;-55
2022/11/04 04:55:30;;;;;;;;;1.00;0.00;;;;;11.47;74.35;99611.13;5076977;27;45568;-57
2022/11/04 04:57:55;;;;;;;;;0.00;0.00;;;;;11.42;74.57;99605.28;5077790;28;45459;-56
2022/11/04 05:00:21;;;;;;;;;0.00;0.00;;;;;11.45;74.45;99605.91;5079193;28;45500;-57
2022/11/04 05:02:47;;;;;;;;;0.00;0.00;;;;;11.44;74.58;99614.00;5078596;27;45406;-57
2022/11/04 05:05:13;;;;;;;;;1.00;0.00;;;;;11.40;74.17;99618.72;5060306;28;45414;-57
2022/11/04 05:07:39;;;;;;;;;1.00;0.00;;;;;11.37;74.48;99607.47;5078820;28;45374;-58
2022/11/04 05:10:06;;;;;;;;;0.33;0.00;;;;;11.39;74.39;99613.50;5079153;28;45644;-58
2022/11/04 05:15:27;;;;;;;;;0.67;0.67;;;;;11.43;74.15;99609.66;5046926;27;45507;-68
2022/11/04 05:17:54;;;;;;;;;0.00;0.00;;;;;11.40;74.35;99612.56;5075320;27;45556;-58
2022/11/04 05:20:20;;;;;;;;;0.00;0.00;;;;;11.36;74.36;99605.75;5079196;28;45179;-57
2022/11/04 05:22:45;;;;;;;;;0.00;0.00;;;;;11.40;74.22;99612.56;5079291;27;45671;-57
2022/11/04 05:25:10;;;;;;;;;0.00;0.00;;;;;11.37;74.24;99612.78;5078926;28;46154;-56
2022/11/04 05:27:36;;;;;;;;;1.00;0.00;;;;;11.34;74.45;99613.88;5079282;27;45584;-56
2022/11/04 05:30:02;;;;;;;;;0.33;0.00;;;;;11.31;74.45;99615.88;5059445;28;45315;-57
2022/11/04 05:32:30;;;;;;;;;1.00;1.00;;;;;11.32;74.87;99614.91;5078895;28;45568;-56
2022/11/04 05:34:55;;;;;;;;;1.00;0.00;;;;;11.35;74.48;99625.38;5058304;28;46493;-56
2022/11/04 05:37:20;;;;;;;;;0.00;0.00;;;;;11.35;74.32;99617.38;5078562;28;45426;-57
2022/11/04 05:39:46;;;;;;;;;0.00;0.00;;;;;11.36;74.46;99617.25;5077674;27;45485;-57
2022/11/04 05:42:11;;;;;;;;;0.00;0.00;;;;;11.29;74.44;99609.84;5077046;27;45700;-58
2022/11/04 05:44:36;;;;;;;;;0.00;0.00;;;;;11.34;74.42;99615.69;5078478;28;45990;-58
2022/11/04 05:47:01;;;;;;;;;0.00;0.00;;;;;11.32;74.58;99621.09;5077612;28;45268;-58
2022/11/04 05:49:27;;;;;;;;;1.00;0.33;;;;;11.32;74.64;99620.25;5078545;27;45349;-58
2022/11/04 05:51:52;;;;;;;;;1.33;1.00;;;;;11.27;74.40;99612.63;5078052;27;45600;-59
2022/11/04 05:54:18;;;;;;;;;3.00;1.00;;;;;11.38;74.16;99625.13;5078046;28;45930;-57
2022/11/04 05:56:43;;;;;;;;;0.67;0.67;;;;;11.36;74.63;99627.91;5078182;27;45335;-56
2022/11/04 05:59:08;;;;;;;;;1.00;1.00;;;;;11.39;73.82;99630.34;5078380;28;45327;-58
2022/11/04 06:01:36;;;;;;;;;3.00;0.00;;;;;11.36;74.36;99632.38;5075097;27;45547;-59
2022/11/04 06:04:04;;;;;;;;;2.00;0.00;;;;;11.33;74.50;99632.59;5078986;28;47062;-57
2022/11/04 06:06:32;;;;;;;;;0.33;0.00;;;;;11.36;74.54;99645.69;5060239;28;45363;-57
2022/11/04 06:08:59;;;;;;;;;2.00;0.33;;;;;11.34;74.60;99645.81;5078841;28;45346;-57
2022/11/04 06:11:26;;;;;;;;;0.33;0.00;;;;;11.30;74.51;99649.66;5078380;28;45457;-57
2022/11/04 06:13:55;;;;;;;;;1.00;1.00;;;;;11.25;74.48;99638.50;5078659;27;46047;-58
2022/11/04 06:16:22;;;;;;;;;0.33;0.00;;;;;11.23;74.30;99641.28;5060538;28;45697;-58
2022/11/04 06:18:47;;;;;;;;;3.67;0.33;;;;;11.28;74.42;99650.72;5078446;28;47179;-59
2022/11/04 06:21:13;;;;;;;;;0.67;0.00;;;;;11.27;74.22;99657.00;5066415;27;45328;-63
2022/11/04 06:23:39;;;;;;;;;0.00;0.00;;;;;11.26;74.29;99647.34;5058677;28;45288;-58
2022/11/04 06:26:05;;;;;;;;;1.33;0.33;;;;;11.31;74.35;99655.81;5057557;28;45386;-58
2022/11/04 06:28:31;;;;;;;;;0.67;0.00;;;;;11.30;73.73;99665.63;5058358;28;45362;-57
2022/11/04 06:30:58;;;;;;;;;1.00;1.00;;;;;11.33;74.14;99672.53;5077247;27;45711;-58
2022/11/04 06:33:23;;;;;;;;;0.00;0.00;;;;;11.33;73.88;99668.06;5073428;27;45548;-58
2022/11/04 06:35:49;;;;;;;;;0.00;0.00;;;;;11.40;73.78;99671.13;5059394;28;45386;-59
2022/11/04 06:38:14;;;;;;;;;2.00;1.00;;;;;11.42;73.89;99675.34;5079618;27;45362;-57
2022/11/04 06:40:39;;;;;;;;;1.67;1.00;;;;;11.38;73.49;99662.41;5077921;28;45507;-58
2022/11/04 06:43:05;;;;;;;;;2.00;1.00;;;;;11.39;73.58;99669.41;5076543;27;45357;-57
2022/11/04 06:45:30;;;;;;;;;0.00;0.00;;;;;11.33;73.97;99661.88;5075950;28;48982;-58
2022/11/04 06:47:56;;;;;;;;;0.33;0.00;;;;;11.38;73.57;99675.72;5076140;28;45309;-58
2022/11/04 06:50:21;;;;;;;;;1.67;1.00;;;;;11.38;74.18;99678.38;5076428;27;45564;-58
2022/11/04 06:52:47;;;;;;;;;1.67;1.00;;;;;11.41;73.59;99679.00;5076346;28;46051;-56
2022/11/04 06:55:12;;;;;;;;;0.67;0.67;;;;;11.40;73.95;99682.63;5076519;27;45473;-57
2022/11/04 06:57:37;;;;;;;;;1.00;0.00;;;;;11.40;73.65;99692.41;5066533;27;45568;-57
2022/11/04 07:00:03;;;;;;;;;2.00;1.00;;;;;11.36;73.48;99673.16;5067475;27;45696;-58
2022/11/04 07:02:29;;;;;;;;;0.67;0.00;;;;;11.42;73.48;99685.16;5044233;28;47194;-56
2022/11/04 07:04:54;;;;;;;;;0.00;0.00;;;;;11.44;73.80;99694.72;5056463;28;45296;-57
2022/11/04 07:07:19;;;;;;;;;2.00;1.00;;;;;11.50;73.59;99696.09;5073720;27;45302;-59
2022/11/04 07:09:45;;;;;;;;;2.00;0.00;;;;;11.52;73.68;99697.69;5089492;27;45624;-58
2022/11/04 07:12:13;;;;;;;;;0.33;0.00;;;;;11.54;73.65;99702.91;5078688;27;45342;-58
2022/11/04 07:14:39;;;;;;;;;0.00;0.00;;;;;11.56;73.27;99708.94;5072976;27;45445;-58
2022/11/04 07:17:04;;;;;;;;;1.33;1.00;;;;;11.51;73.07;99703.13;5076373;28;45385;-61
2022/11/04 07:19:29;;;;;;;;;2.00;0.33;;;;;11.51;73.24;99714.63;5060808;28;45463;-59
2022/11/04 07:21:55;;;;;;;;;0.00;0.00;;;;;11.52;73.64;99721.66;5076506;27;46101;-58
2022/11/04 07:24:21;;;;;;;;;0.00;0.00;;;;;11.44;73.60;99709.84;5074911;27;45320;-57
2022/11/04 07:26:46;;;;;;;;;3.00;0.00;;;;;11.54;73.29;99732.19;5077405;27;45431;-57
2022/11/04 07:29:12;;;;;;;;;0.00;0.00;;;;;11.53;73.29;99730.47;5059172;28;45227;-58
2022/11/04 07:31:37;;;;;;;;;0.67;0.67;;;;;11.45;73.16;99728.38;5076390;27;46177;-58
2022/11/04 07:34:03;;;;;;;;;2.00;0.00;;;;;11.50;73.52;99736.03;5076281;28;45344;-58
2022/11/04 07:36:28;;;;;;;;;1.00;1.00;;;;;11.53;73.16;99735.81;5076562;28;45231;-57
2022/11/04 07:38:54;;;;;;;;;0.33;0.00;;;;;11.49;73.05;99729.03;5058595;28;45262;-62
2022/11/04 07:41:19;;;;;;;;;0.67;0.00;;;;;11.57;73.39;99747.94;5056069;27;46134;-59
2022/11/04 07:43:50;;;;;;;;;0.00;0.00;;;;;11.57;73.29;99753.25;5071241;27;45312;-60
2022/11/04 07:46:16;;;;;;;;;3.00;0.00;;;;;11.60;73.14;99755.72;5056651;27;45347;-58
2022/11/04 07:48:42;;;;;;;;;1.33;0.00;;;;;11.58;73.29;99748.78;5070151;27;45553;-60
2022/11/04 07:51:11;;;;;;;;;1.00;1.00;;;;;11.50;72.13;99731.56;5071467;27;45296;-57
2022/11/04 07:53:36;;;;;;;;;1.67;1.00;;;;;11.67;72.44;99770.25;5076601;28;45473;-57
2022/11/04 07:56:07;;;;;;;;;0.67;0.67;;;;;11.68;72.39;99771.13;5076839;28;45624;-59
2022/11/04 07:58:33;;;;;;;;;2.00;2.00;;;;;11.62;72.25;99766.25;5072183;27;45462;-57
2022/11/04 08:01:05;;;;;;;;;1.00;1.00;;;;;11.75;72.27;99788.34;5075871;27;45493;-57
2022/11/04 08:03:32;;;;;;;;;0.00;0.00;;;;;11.82;72.15;99785.13;5079106;27;45730;-57
2022/11/04 08:05:59;;;;;;;;;0.00;0.00;;;;;11.79;71.89;99789.84;5078656;28;45408;-61
2022/11/04 08:08:24;;;;;;;;;0.00;0.00;;;;;11.73;72.06;99784.97;5078282;28;45612;-58
2022/11/04 08:10:59;;;;;;;;;0.00;0.00;;;;;11.80;72.11;99802.22;5063592;28;45959;-58
2022/11/04 08:13:34;;;;;;;;;1.67;1.00;;;;;11.92;71.66;99805.78;5079245;27;45215;-57
2022/11/04 08:16:05;;;;;;;;;4.00;0.67;;;;;11.95;71.66;99811.72;5078275;28;45424;-59
2022/11/04 08:18:32;;;;;;;;;0.00;0.00;;;;;12.04;71.27;99815.53;5079524;27;45382;-57
2022/11/04 08:20:58;;;;;;;;;0.67;0.67;;;;;12.06;71.54;99809.13;5060866;27;45414;-58
2022/11/04 08:23:24;;;;;;;;;2.33;0.33;;;;;12.13;71.44;99814.88;5079258;28;45386;-58
2022/11/04 08:25:50;;;;;;;;;2.00;0.00;;;;;12.17;71.33;99812.81;5080513;27;45356;-57
2022/11/04 08:28:18;;;;;;;;;4.00;0.00;;;;;12.22;71.09;99827.47;5069201;28;45237;-58
2022/11/04 08:30:54;;;;;;;;;6.00;0.00;;;;;12.27;71.12;99827.16;5058965;28;46228;-58
2022/11/04 08:33:21;;;;;;;;;0.67;0.00;;;;;12.32;70.40;99831.16;5059054;28;45382;-57
2022/11/04 08:35:46;;;;;;;;;1.00;1.00;;;;;12.33;70.43;99827.53;5059087;28;45328;-58
2022/11/04 08:38:12;;;;;;;;;1.00;1.00;;;;;12.43;70.52;99837.50;5058991;28;45524;-60
2022/11/04 08:40:38;;;;;;;;;1.67;1.00;;;;;12.49;69.84;99839.69;5040639;28;46240;-60
2022/11/04 08:43:03;;;;;;;;;0.00;0.00;;;;;12.50;69.27;99844.94;5064058;28;45269;-58
2022/11/04 08:45:29;;;;;;;;;0.00;0.00;;;;;12.53;69.21;99835.84;5079265;27;45244;-58
2022/11/04 08:47:54;;;;;;;;;1.67;1.67;;;;;12.57;69.23;99839.97;5078765;27;45489;-58
2022/11/04 08:50:26;;;;;;;;;0.33;0.33;;;;;12.66;69.21;99853.47;5063926;28;45337;-59
2022/11/04 08:52:52;;;;;;;;;0.00;0.00;;;;;12.64;68.87;99855.41;5058396;28;45342;-57
2022/11/04 08:55:17;;;;;;;;;0.00;0.00;;;;;12.71;68.71;99863.78;5059051;28;45320;-58
2022/11/04 08:57:42;;;;;;;;;3.33;1.00;;;;;12.78;67.60;99886.38;5059039;28;45623;-58
2022/11/04 09:00:08;;;;;;;;;1.67;1.00;;;;;12.79;67.74;99890.72;5058125;28;50809;-59
2022/11/04 09:02:34;;;;;;;;;3.00;1.00;;;;;12.80;68.00;99884.44;5040354;28;45315;-58
2022/11/04 09:05:00;;;;;;;;;2.00;0.67;;;;;12.85;67.94;99897.41;5058419;28;45329;-58
2022/11/04 09:07:26;;;;;;;;;0.67;0.67;;;;;12.87;67.69;99896.31;5059412;28;45566;-57
2022/11/04 09:09:51;;;;;;;;;1.00;1.00;;;;;12.87;67.78;99887.47;5058679;28;45516;-58
2022/11/04 09:12:17;;;;;;;;;0.67;0.67;;;;;12.85;67.53;99895.59;5069786;28;45346;-57
2022/11/04 09:14:42;;;;;;;;;0.67;0.67;;;;;12.82;68.01;99897.66;5074170;28;45842;-57
2022/11/04 09:17:08;;;;;;;;;4.00;1.00;;;;;12.86;66.77;99912.44;5078570;28;45302;-58
2022/11/04 09:19:33;;;;;;;;;1.67;0.00;;;;;12.75;67.45;99913.25;5078777;28;45309;-57
2022/11/04 09:21:58;;;;;;;;;3.00;0.33;;;;;12.80;67.83;99920.94;5078454;28;45407;-59
2022/11/04 09:24:24;;;;;;;;;1.00;1.00;;;;;12.89;68.20;99915.75;5062861;28;45462;-59
2022/11/04 09:26:49;;;;;;;;;0.00;0.00;;;;;12.87;67.47;99911.47;5058880;28;45307;-58
2022/11/04 09:29:15;;;;;;;;;0.00;0.00;;;;;12.91;67.50;99916.47;5057906;28;45425;-58
2022/11/04 09:31:42;;;;;;;;;4.00;3.00;;;;;12.91;66.86;99928.97;5076923;28;45296;-58
2022/11/04 09:34:07;;;;;;;;;2.00;2.00;;;;;12.90;67.02;99928.13;5072913;27;45433;-60
2022/11/04 09:36:32;;;;;;;;;1.00;1.00;;;;;12.91;67.37;99940.50;5078634;27;45596;-60
2022/11/04 09:38:58;;;;;;;;;3.67;1.00;;;;;12.89;67.64;99950.44;5089995;27;45292;-60
2022/11/04 09:41:39;;;;;;;;;0.00;0.00;;;;;12.86;67.14;99952.47;5068026;27;46182;-59
2022/11/04 09:44:26;;;;;;;;;0.67;0.00;;;;;12.92;67.76;99942.19;5069669;27;45519;-58
2022/11/04 09:46:56;;;;;;;;;1.00;1.00;;;;;12.93;67.04;99959.91;5079538;27;45422;-58
2022/11/04 09:49:25;;;;;;;;;1.00;1.00;;;;;12.96;66.83;99959.69;5078931;27;45505;-60
2022/11/04 09:51:51;;;;;;;;;0.00;0.00;;;;;12.88;66.76;99951.38;5083493;27;45383;-60
2022/11/04 09:54:39;;;;;;;;;2.00;0.00;;;;;13.03;66.27;99969.91;5082736;28;45173;-58
2022/11/04 09:57:11;;;;;;;;;4.67;0.00;;;;;13.09;66.35;99975.63;5074879;28;45314;-58
2022/11/04 09:59:37;;;;;;;;;0.00;0.00;;;;;13.11;65.42;99967.47;5077461;28;45736;-59
2022/11/04 10:02:30;;;;;;;;;2.00;0.67;;;;;13.13;65.83;99977.06;5058954;28;45217;-58
2022/11/04 10:05:13;;;;;;;;;1.00;1.00;;;;;13.17;65.14;99988.38;5076972;27;45410;-59
2022/11/04 10:08:16;;;;;;;;;3.00;1.00;;;;;13.06;64.50;99991.03;5060484;27;45548;-60
2022/11/04 10:10:54;;;;;;;;;1.00;1.00;;;;;13.03;65.81;100002.78;5077702;28;46273;-58
2022/11/04 10:13:36;;;;;;;;;1.00;1.00;;;;;12.89;64.84;100003.81;5072249;27;45344;-58
2022/11/04 10:16:13;;;;;;;;;3.33;1.00;;;;;12.89;65.37;100018.97;5056914;28;45444;-57
2022/11/04 10:19:06;;;;;;;;;4.67;2.33;;;;;13.25;65.80;100018.03;5038413;28;46257;-58
2022/11/04 10:21:46;;;;;;;;;1.00;1.00;;;;;13.33;63.84;100025.47;5057155;28;45446;-59
2022/11/04 10:24:23;;;;;;;;;2.00;0.67;;;;;13.26;64.21;100031.28;5057074;28;45293;-58
2022/11/04 10:27:00;;;;;;;;;0.00;0.00;;;;;13.37;64.21;100033.13;5057267;27;45178;-59
2022/11/04 10:29:36;;;;;;;;;3.33;1.00;;;;;13.62;64.04;100039.25;5075794;27;45366;-58
2022/11/04 10:32:14;;;;;;;;;2.00;2.00;;;;;13.71;64.13;100042.06;5074857;28;45471;-58
2022/11/04 10:35:12;;;;;;;;;3.00;1.00;;;;;13.74;63.16;100057.88;5062098;27;46075;-60
2022/11/04 10:37:38;;;;;;;;;1.00;1.00;;;;;13.51;61.57;100062.31;5074169;27;45244;-61
2022/11/04 10:40:27;;;;;;;;;2.00;0.00;;;;;13.53;62.30;100073.72;5068455;27;45248;-58
2022/11/04 10:42:57;;;;;;;;;2.00;1.00;;;;;13.71;61.69;100078.63;5075380;27;45526;-59
2022/11/04 10:45:32;;;;;;;;;1.33;1.33;;;;;13.78;62.25;100090.53;5077599;28;45252;-58
2022/11/04 10:48:05;;;;;;;;;4.33;3.00;;;;;13.88;61.21;100081.69;5076491;27;45479;-58
2022/11/04 10:50:47;;;;;;;;;2.00;2.00;;;;;14.01;61.52;100084.25;5076749;28;45498;-58
2022/11/04 10:53:18;;;;;;;;;2.00;1.00;;;;;14.21;61.58;100087.22;5059384;27;46545;-59
2022/11/04 10:55:53;;;;;;;;;1.67;1.67;;;;;14.35;59.54;100089.63;5056725;28;45280;-59
2022/11/04 10:58:24;;;;;;;;;0.00;0.00;;;;;14.24;60.68;100092.31;5058821;27;45245;-57
2022/11/04 11:00:50;;;;;;;;;3.00;1.67;;;;;14.22;60.08;100110.31;5052846;28;45465;-59
2022/11/04 11:03:31;;;;;;;;;4.00;2.00;;;;;14.35;60.32;100111.03;5056905;28;45657;-58
2022/11/04 11:06:24;;;;;;;;;3.67;2.33;;;;;14.29;59.62;100112.34;5068859;27;45689;-58
2022/11/04 11:08:53;;;;;;;;;2.00;2.00;;;;;14.36;60.59;100118.09;5075187;27;45459;-58
2022/11/04 11:11:36;;;;;;;;;2.00;2.00;;;;;14.27;59.93;100116.13;5049898;28;45467;-60
2022/11/04 11:14:01;;;;;;;;;3.00;3.00;;;;;14.27;60.15;100119.66;5077898;27;45357;-59
2022/11/04 11:16:30;;;;;;;;;0.00;0.00;;;;;14.32;59.02;100121.94;5079005;27;45449;-58
2022/11/04 11:19:11;;;;;;;;;2.00;2.00;;;;;14.47;58.91;100120.81;5097456;27;45366;-58
2022/11/04 11:21:47;;;;;;;;;1.00;1.00;;;;;14.59;58.72;100117.16;5095690;27;45517;-58
2022/11/04 11:24:29;;;;;;;;;2.00;1.00;;;;;14.88;58.55;100124.66;5074359;27;46072;-59
2022/11/04 11:27:00;;;;;;;;;3.67;2.00;;;;;14.78;58.44;100129.03;5070907;27;46705;-59
2022/11/04 11:29:25;;;;;;;;;1.00;1.00;;;;;14.49;58.75;100134.91;5072865;27;45490;-58
2022/11/04 11:31:52;;;;;;;;;0.00;0.00;;;;;14.38;59.16;100127.69;5079644;27;45551;-58
2022/11/04 11:34:25;;;;;;;;;3.00;3.00;;;;;14.60;58.85;100134.91;5042705;28;45633;-59
2022/11/04 11:36:52;;;;;;;;;1.00;1.00;;;;;14.78;56.96;100131.72;5077667;28;45489;-59
2022/11/04 11:39:21;;;;;;;;;0.33;0.33;;;;;14.93;56.57;100141.16;5061122;28;45484;-59
2022/11/04 11:41:49;;;;;;;;;3.00;1.33;;;;;14.78;57.35;100148.63;5058584;28;45295;-60
2022/11/04 11:44:31;;;;;;;;;5.00;1.00;;;;;14.62;58.33;100157.03;5075615;28;46021;-59
2022/11/04 11:47:03;;;;;;;;;2.00;2.00;;;;;14.39;59.48;100149.94;5058184;28;45416;-57
2022/11/04 11:49:34;;;;;;;;;3.00;1.00;;;;;14.36;60.31;100147.50;5077080;28;45353;-58
2022/11/04 11:52:26;;;;;;;;;3.00;2.00;;;;;14.25;59.62;100174.25;5079226;27;45449;-58
2022/11/04 11:55:00;;;;;;;;;0.33;0.33;;;;;14.12;60.76;100185.03;5096618;27;46096;-56
2022/11/04 11:57:43;;;;;;;;;2.00;2.00;;;;;14.03;60.92;100165.19;5064333;27;45530;-58
2022/11/04 12:00:14;;;;;;;;;4.00;2.00;;;;;14.32;60.94;100192.38;5071628;27;45328;-59
2022/11/04 12:02:57;;;;;;;;;1.00;1.00;;;;;14.32;61.54;100191.50;5081012;27;45556;-58
2022/11/04 12:05:50;;;;;;;;;0.33;0.33;;;;;14.10;60.57;100203.03;5056914;28;48209;-59
2022/11/04 12:08:31;;;;;;;;;4.00;1.00;;;;;13.97;61.93;100213.81;5071549;27;45975;-58
2022/11/04 12:11:10;;;;;;;;;1.67;1.67;;;;;13.96;61.47;100212.13;5075739;27;45425;-59
2022/11/04 12:13:45;;;;;;;;;3.33;2.33;;;;;13.98;62.26;100220.00;5049422;28;45342;-56
2022/11/04 12:16:42;;;;;;;;;1.00;1.00;;;;;14.33;61.53;100217.31;5066421;28;45299;-57
2022/11/04 12:19:40;;;;;;;;;2.33;2.33;;;;;14.56;60.50;100221.72;5072907;27;45436;-58
2022/11/04 12:22:35;;;;;;;;;3.00;2.00;;;;;14.73;59.29;100218.59;5071605;28;45409;-58